Weather reports worldwide

Advertisment
Oberpfaffenhofen, Germany (10859): temperature & dewpoint: 25.09.2020 00:00:00 - 01.10.2020 00:00:00 (CEST)Oberpfaffenhofen, Germany (10859): wind speed: 25.09.2020 00:00:00 - 01.10.2020 00:00:00 (CEST)Oberpfaffenhofen, Germany (10859): wind direction: 25.09.2020 00:00:00 - 01.10.2020 00:00:00 (CEST)Oberpfaffenhofen, Germany (10859): visibility: 25.09.2020 00:00:00 - 01.10.2020 00:00:00 (CEST)
Date & Time tt [°C] td [°C] ff [km/h] ff [kn] dd vv [km]
01.10.2020 00:00:00 - - - - - -
30.09.2020 23:00:00 9,0 8,0 2 1 - 10
30.09.2020 22:00:00 10,0 9,0 5 3 ESE 10
30.09.2020 21:00:00 11,0 9,0 9 5 E 10
30.09.2020 20:00:00 11,0 9,0 8 4 E 10
30.09.2020 19:00:00 14,0 10,0 11 6 ENE 10
30.09.2020 18:00:00 16,0 10,0 13 7 NE 10
30.09.2020 17:00:00 16,0 11,0 13 7 NNE 10
30.09.2020 16:00:00 16,0 11,0 16 9 N 10
30.09.2020 15:00:00 16,0 10,0 9 5 NE 10
30.09.2020 14:00:00 16,0 9,0 5 3 - 10
30.09.2020 13:00:00 16,0 9,0 4 2 - 10
30.09.2020 12:00:00 14,0 8,0 5 3 WSW 10
30.09.2020 11:00:00 13,0 8,0 4 2 - 10
30.09.2020 10:00:00 11,0 8,0 4 2 - 10
30.09.2020 09:00:00 10,0 8,0 2 1 - 10
30.09.2020 08:00:00 8,0 7,0 5 3 SE 10
30.09.2020 07:00:00 8,0 7,0 5 3 S 10
30.09.2020 06:00:00 9,0 8,0 4 2 SW 10
30.09.2020 05:00:00 10,0 9,0 2 1 - 10
30.09.2020 04:00:00 10,0 9,0 0 0 N 10
30.09.2020 03:00:00 10,0 9,0 5 3 SW 10
30.09.2020 02:00:00 10,0 8,0 4 2 SSW 10
30.09.2020 01:00:00 10,0 8,0 5 3 SW 10
30.09.2020 00:00:00 10,0 8,0 11 6 WSW 10
29.09.2020 23:00:00 10,0 8,0 13 7 SW 10
29.09.2020 22:00:00 10,0 8,0 11 6 SW 10
29.09.2020 21:00:00 11,0 8,0 13 7 WSW 10
29.09.2020 20:00:00 10,0 8,0 15 8 WSW 10
29.09.2020 19:00:00 11,0 8,0 15 8 WSW 10
29.09.2020 18:00:00 11,0 8,0 18 10 WSW 7
29.09.2020 17:00:00 11,0 9,0 22 12 WSW 10
29.09.2020 16:00:00 11,0 8,0 24 13 WSW 10
29.09.2020 15:00:00 11,0 9,0 22 12 WSW 10
29.09.2020 14:00:00 11,0 9,0 24 13 WSW 10
29.09.2020 13:00:00 11,0 9,0 22 12 W 7
29.09.2020 12:00:00 10,0 9,0 22 12 WSW 6
29.09.2020 11:00:00 10,0 9,0 13 7 SW 2,5
29.09.2020 10:00:00 9,0 8,0 11 6 S 4,0
29.09.2020 09:00:00 8,0 8,0 13 7 S 3,7
29.09.2020 08:00:00 9,0 8,0 13 7 SSW 6
29.09.2020 07:00:00 9,0 8,0 11 6 SSW 10
29.09.2020 06:00:00 8,0 7,0 18 10 SW 10
29.09.2020 05:00:00 7,0 6,0 11 6 SW 10
29.09.2020 04:00:00 7,0 5,0 11 6 SSW 10
29.09.2020 03:00:00 7,0 5,0 11 6 SSW 10
29.09.2020 02:00:00 7,0 5,0 11 6 SSW 10
29.09.2020 01:00:00 7,0 5,0 11 6 SSW 10
29.09.2020 00:00:00 7,0 5,0 5 3 S 10
28.09.2020 23:00:00 8,0 6,0 4 2 - 10
28.09.2020 22:00:00 8,0 7,0 9 5 S 10
28.09.2020 21:00:00 8,0 7,0 5 3 S 10
28.09.2020 20:00:00 9,0 7,0 9 5 S 10
28.09.2020 19:00:00 9,0 8,0 9 5 S 10
28.09.2020 18:00:00 10,0 8,0 8 4 ESE 10
28.09.2020 17:00:00 10,0 8,0 8 4 E 10
28.09.2020 16:00:00 10,0 6,0 8 4 NNW 10
28.09.2020 15:00:00 11,0 6,0 8 4 SW 10
28.09.2020 14:00:00 10,0 6,0 9 5 W 10
28.09.2020 13:00:00 10,0 7,0 4 2 - 10
28.09.2020 12:00:00 8,0 6,0 5 3 W 10
28.09.2020 11:00:00 7,0 5,0 8 4 W 10
28.09.2020 10:00:00 7,0 5,0 11 6 W 10
28.09.2020 09:00:00 5,0 5,0 9 5 WSW 10
28.09.2020 08:00:00 4,0 3,0 9 5 WSW 10
28.09.2020 07:00:00 5,0 4,0 8 4 WSW 10
28.09.2020 06:00:00 4,0 4,0 9 5 WSW 10
28.09.2020 05:00:00 4,0 3,0 11 6 SW 10
28.09.2020 04:00:00 2,0 1,0 5 3 SSW 0,6
28.09.2020 03:00:00 3,0 2,0 5 3 WSW 10
28.09.2020 02:00:00 1,0 1,0 4 2 S 10
28.09.2020 01:00:00 2,0 2,0 4 2 S 10
28.09.2020 00:00:00 3,0 3,0 4 2 SSE 10
27.09.2020 23:00:00 5,0 4,0 4 2 - 10
27.09.2020 22:00:00 6,0 4,0 2 1 SSW 10
27.09.2020 21:00:00 7,0 4,0 2 1 - 10
27.09.2020 20:00:00 10,0 4,0 9 5 ENE 10
27.09.2020 19:00:00 11,0 4,0 9 5 E 10
27.09.2020 18:00:00 14,0 3,0 15 8 ENE 10
27.09.2020 17:00:00 14,0 3,0 11 6 NE 10
27.09.2020 16:00:00 14,0 2,0 15 8 E 10
27.09.2020 15:00:00 14,0 2,0 13 7 E 10
27.09.2020 14:00:00 14,0 3,0 13 7 E 10
27.09.2020 13:00:00 13,0 3,0 5 3 SE 10
27.09.2020 12:00:00 12,0 3,0 8 4 - 10
27.09.2020 11:00:00 11,0 3,0 21 11 SW 10
27.09.2020 10:00:00 10,0 3,0 18 10 WSW 10
27.09.2020 09:00:00 8,0 3,0 22 12 WSW 10
27.09.2020 08:00:00 7,0 3,0 21 11 SW 10
27.09.2020 07:00:00 7,0 2,0 22 12 WSW 10
27.09.2020 06:00:00 6,0 2,0 24 13 SW 10
27.09.2020 05:00:00 6,0 2,0 22 12 SW 10
27.09.2020 04:00:00 6,0 3,0 28 15 SW 10
27.09.2020 03:00:00 6,0 3,0 34 18 WSW 10
27.09.2020 02:00:00 6,0 3,0 29 16 SW 10
27.09.2020 01:00:00 6,0 3,0 34 18 SW 10
27.09.2020 00:00:00 6,0 3,0 37 20 SW 10
26.09.2020 23:00:00 6,0 3,0 34 18 SW 10
26.09.2020 22:00:00 6,0 3,0 35 19 SW 10
26.09.2020 21:00:00 5,0 3,0 35 19 SW 10
26.09.2020 20:00:00 5,0 3,0 29 16 SW 10
26.09.2020 19:00:00 6,0 4,0 31 17 SW 10
26.09.2020 18:00:00 6,0 3,0 39 21 SW 10
26.09.2020 17:00:00 - - - - - -
26.09.2020 16:00:00 6,0 4,0 29 16 WSW 10
26.09.2020 15:00:00 6,0 4,0 34 18 WSW 10
26.09.2020 14:00:00 6,0 4,0 39 21 WSW 10
26.09.2020 13:00:00 6,0 4,0 31 17 WSW 6
26.09.2020 12:00:00 6,0 4,0 31 17 WSW 5
26.09.2020 11:00:00 7,0 4,0 31 17 WSW 10
26.09.2020 10:00:00 7,0 4,0 31 17 WSW 10
26.09.2020 09:00:00 7,0 4,0 28 15 W 10
26.09.2020 08:00:00 6,0 5,0 22 12 W 10
26.09.2020 07:00:00 7,0 5,0 26 14 W 10
26.09.2020 06:00:00 6,0 5,0 22 12 W 10
26.09.2020 05:00:00 6,0 5,0 22 12 W 10
26.09.2020 04:00:00 7,0 5,0 18 10 W 10
26.09.2020 03:00:00 7,0 5,0 21 11 W 10
26.09.2020 02:00:00 7,0 5,0 22 12 W 10
26.09.2020 01:00:00 7,0 5,0 24 13 WSW 10
26.09.2020 00:00:00 7,0 5,0 18 10 SW 10
25.09.2020 23:00:00 6,0 5,0 18 10 SW 10
25.09.2020 22:00:00 6,0 4,0 15 8 SSW 10
25.09.2020 21:00:00 5,0 4,0 11 6 S 10
25.09.2020 20:00:00 5,0 3,0 13 7 S 10
25.09.2020 19:00:00 5,0 4,0 13 7 S 10
25.09.2020 18:00:00 5,0 4,0 15 8 SSW 7
25.09.2020 17:00:00 6,0 3,0 22 12 SW 7
25.09.2020 16:00:00 7,0 4,0 22 12 SW 10
25.09.2020 15:00:00 8,0 5,0 22 12 WSW 7
25.09.2020 14:00:00 9,0 6,0 22 12 WSW 10
25.09.2020 13:00:00 9,0 7,0 21 11 WSW 10
25.09.2020 12:00:00 9,0 7,0 21 11 WSW 10
25.09.2020 11:00:00 9,0 7,0 15 8 W 10
25.09.2020 10:00:00 8,0 7,0 16 9 W 8
25.09.2020 09:00:00 11,0 10,0 13 7 S 8
25.09.2020 08:00:00 11,0 10,0 13 7 S 10
25.09.2020 07:00:00 12,0 10,0 15 8 SSW 10
25.09.2020 06:00:00 12,0 10,0 11 6 S 10
25.09.2020 05:00:00 12,0 11,0 16 9 SSW 10
25.09.2020 04:00:00 12,0 11,0 16 9 SW 10
25.09.2020 03:00:00 13,0 12,0 15 8 SW 10
25.09.2020 02:00:00 13,0 12,0 18 10 WSW 9
25.09.2020 01:00:00 13,0 12,0 13 7 SW 10
25.09.2020 00:00:00 14,0 12,0 18 10 WSW 10

tt = temperature
td = dewpoint
ff = wind speed
dd = wind direction
vv = visibility

Next stations